Terminal Aerodrome Forecast
Issued by NWS

Home | Current Version | Previous Version | Text Only | Print | Product List | Glossary On
Versions: 1 2 3 4 5 6 7 8 9 10 11 12 13 14 15 16 17 18 19 20 21 22 23 24 25
000
FTUS41 KGYX 260736 AAA
TAFLEB
TAF AMD
KLEB 260736Z 2608/2706 VRB03KT 2SM BR SCT002 BKN120
     FM260930 27006KT P6SM -SHRA BKN050 BKN080
     FM261100 29010KT P6SM BKN040 OVC060
     FM262300 31005KT P6SM BKN050=

USA.gov is the U.S. government's official web portal to all federal, state and local government web resources and services.